Time;durP1;ratioP1;P1;durP2;ratioP2;P2;SDS_P1;SDS_P2;PMS_P1;PMS_P2;Temp;Humidity;BMP_temperature;BMP_pressure;BME280_temperature;BME280_humidity;BME280_pressure;Samples;Min_cycle;Max_cycle;Signal;HPM_P1;HPM_P2
2021/12/06 00:01:42;;;;;;;238.18;129.55;;;;;;;1.65;72.81;93478.52;1688709;83;21180;-57
2021/12/06 00:04:21;;;;;;;281.73;149.97;;;;;;;1.58;72.84;93484.11;1711758;83;21014;-58
2021/12/06 00:06:53;;;;;;;266.30;142.93;;;;;;;1.63;73.40;93487.66;1708604;83;21164;-57
2021/12/06 00:09:22;;;;;;;255.87;135.70;;;;;;;1.66;72.99;93484.11;1709899;82;20974;-57
2021/12/06 00:11:56;;;;;;;241.68;130.65;;;;;;;1.63;73.07;93487.66;1709272;82;21096;-56
2021/12/06 00:14:19;;;;;;;265.87;140.28;;;;;;;1.65;73.60;93485.30;1710798;83;21342;-56
2021/12/06 00:16:46;;;;;;;288.82;151.12;;;;;;;1.77;73.38;93471.09;1708839;83;21001;-57
2021/12/06 00:19:13;;;;;;;319.68;166.47;;;;;;;1.84;73.21;93479.05;1710244;83;21034;-56
2021/12/06 00:21:39;;;;;;;300.05;156.87;;;;;;;1.92;73.07;93479.07;1665694;83;21526;-58
2021/12/06 00:24:07;;;;;;;284.35;148.38;;;;;;;1.98;72.99;93474.05;1709212;83;20946;-57
2021/12/06 00:26:33;;;;;;;271.35;143.85;;;;;;;2.09;72.80;93486.00;1708163;83;21154;-57
2021/12/06 00:29:00;;;;;;;232.60;128.05;;;;;;;2.13;72.29;93485.34;1709735;83;21109;-57
2021/12/06 00:31:31;;;;;;;326.20;169.28;;;;;;;2.13;72.11;93483.38;1712360;83;20958;-58
2021/12/06 00:34:00;;;;;;;257.45;136.62;;;;;;;2.08;71.93;93476.34;1711889;83;21086;-57
2021/12/06 00:36:30;;;;;;;241.08;130.75;;;;;;;1.95;71.91;93468.73;1687850;83;20963;-57
2021/12/06 00:38:56;;;;;;;195.38;107.10;;;;;;;1.83;72.31;93468.04;1711545;83;21176;-57
2021/12/06 00:41:23;;;;;;;238.05;129.75;;;;;;;1.74;72.44;93459.14;1707785;83;21537;-56
2021/12/06 00:43:50;;;;;;;243.82;134.27;;;;;;;1.58;72.60;93463.78;1711664;83;21089;-57
2021/12/06 00:46:17;;;;;;;238.12;133.15;;;;;;;1.51;73.42;93465.28;1708448;83;20978;-57
2021/12/06 00:48:44;;;;;;;232.92;129.80;;;;;;;1.62;73.74;93466.39;1710023;83;20967;-57
2021/12/06 00:51:12;;;;;;;233.10;133.43;;;;;;;1.71;73.17;93467.34;1710398;83;22301;-57
2021/12/06 00:53:40;;;;;;;225.13;129.57;;;;;;;1.74;73.32;93470.59;1709391;83;20976;-57
2021/12/06 00:56:08;;;;;;;224.92;128.00;;;;;;;1.79;73.03;93459.23;1708076;83;21053;-57
2021/12/06 00:58:34;;;;;;;233.10;126.75;;;;;;;1.77;72.98;93457.54;1685974;83;20978;-57
2021/12/06 01:01:02;;;;;;;241.08;131.95;;;;;;;1.73;72.83;93458.97;1686850;83;21125;-58
2021/12/06 01:03:33;;;;;;;220.25;124.10;;;;;;;1.69;72.93;93452.70;1686908;83;21162;-57
2021/12/06 01:06:01;;;;;;;240.87;133.67;;;;;;;1.68;73.06;93445.76;1709635;83;21098;-57
2021/12/06 01:08:29;;;;;;;233.68;128.20;;;;;;;1.67;73.25;93448.30;1707593;83;20974;-57
2021/12/06 01:10:56;;;;;;;248.22;138.77;;;;;;;1.64;73.13;93443.12;1663442;83;20962;-57
2021/12/06 01:13:25;;;;;;;240.92;131.45;;;;;;;1.59;73.54;93444.98;1707769;83;20967;-57
2021/12/06 01:15:54;;;;;;;244.70;135.40;;;;;;;1.61;73.62;93448.03;1710862;83;21141;-57
2021/12/06 01:18:22;;;;;;;242.22;132.67;;;;;;;1.65;73.79;93444.64;1712083;83;21010;-56
2021/12/06 01:20:55;;;;;;;240.90;134.00;;;;;;;1.71;73.60;93451.08;1704128;83;20962;-58
2021/12/06 01:23:22;;;;;;;260.32;143.75;;;;;;;1.75;73.74;93445.00;1708889;83;21065;-57
2021/12/06 01:26:08;;;;;;;246.13;135.20;;;;;;;1.84;73.83;93447.30;1705407;83;20951;-56
2021/12/06 01:31:00;;;;;;;251.40;135.32;;;;;;;1.84;72.93;93438.39;1712932;83;20942;-57
2021/12/06 01:41:31;;;;;;;253.02;140.40;;;;;;;1.63;74.22;93425.33;1710999;83;21183;-56
2021/12/06 01:44:21;;;;;;;239.42;130.30;;;;;;;1.75;73.91;93421.36;1707814;83;21061;-58
2021/12/06 01:47:06;;;;;;;247.05;134.63;;;;;;;1.81;73.62;93417.55;1711968;83;21165;-57
2021/12/06 01:49:39;;;;;;;256.07;144.22;;;;;;;1.79;73.45;93421.28;1708975;83;20997;-57
2021/12/06 01:52:17;;;;;;;233.97;132.18;;;;;;;1.73;73.80;93410.76;1710602;83;20966;-58
2021/12/06 01:54:44;;;;;;;244.20;135.32;;;;;;;1.82;73.90;93419.08;1705175;83;21850;-57
2021/12/06 01:57:11;;;;;;;249.92;134.05;;;;;;;1.82;73.63;93417.72;1710675;83;21013;-57
2021/12/06 01:59:40;;;;;;;266.38;144.40;;;;;;;1.75;73.56;93416.55;1708910;83;21042;-57
2021/12/06 02:02:07;;;;;;;288.12;150.95;;;;;;;1.73;73.77;93412.72;1711844;83;21522;-57
2021/12/06 02:04:35;;;;;;;252.20;140.37;;;;;;;1.77;74.28;93411.46;1709484;83;21062;-57
2021/12/06 02:07:06;;;;;;;230.00;128.20;;;;;;;1.91;74.23;93410.52;1683631;83;21155;-56
2021/12/06 02:09:35;;;;;;;222.15;120.42;;;;;;;1.96;73.54;93421.45;1709560;83;20994;-58
2021/12/06 02:12:05;;;;;;;249.02;132.00;;;;;;;1.87;73.44;93407.72;1710573;83;21105;-56
2021/12/06 02:14:43;;;;;;;239.82;135.80;;;;;;;1.73;73.57;93410.76;1709411;83;21014;-57
2021/12/06 02:17:11;;;;;;;231.25;127.87;;;;;;;1.69;73.88;93404.66;1710074;83;21010;-57
2021/12/06 02:19:39;;;;;;;229.07;123.40;;;;;;;1.73;74.00;93398.56;1710368;83;21895;-57
2021/12/06 02:22:05;;;;;;;251.85;137.32;;;;;;;1.77;73.90;93402.72;1710708;83;21070;-58
2021/12/06 02:24:32;;;;;;;252.87;134.43;;;;;;;1.74;73.82;93404.92;1712065;83;21458;-58
2021/12/06 02:27:00;;;;;;;236.55;130.52;;;;;;;1.75;73.93;93411.88;1711144;83;20987;-57
2021/12/06 02:29:28;;;;;;;232.07;128.42;;;;;;;1.75;73.94;93410.52;1711259;83;21029;-58
2021/12/06 02:31:55;;;;;;;231.95;126.00;;;;;;;1.83;73.86;93420.59;1709874;83;21198;-57
2021/12/06 02:34:22;;;;;;;241.88;128.35;;;;;;;1.85;73.71;93416.87;1710803;83;21069;-57
2021/12/06 02:36:49;;;;;;;261.05;133.57;;;;;;;1.81;73.60;93414.84;1708964;83;21842;-57
2021/12/06 02:39:22;;;;;;;272.25;143.40;;;;;;;1.76;74.13;93405.87;1711728;83;20990;-58
2021/12/06 02:41:48;;;;;;;266.52;147.22;;;;;;;1.89;74.40;93412.11;1713487;83;20950;-56
2021/12/06 02:44:17;;;;;;;256.90;138.43;;;;;;;2.06;74.38;93402.20;1709573;83;21396;-57
2021/12/06 02:46:44;;;;;;;251.67;138.22;;;;;;;2.24;73.76;93403.09;1709010;83;21002;-56
2021/12/06 02:49:12;;;;;;;242.70;135.10;;;;;;;2.33;73.35;93401.91;1710659;83;21002;-58
2021/12/06 02:51:38;;;;;;;218.05;124.60;;;;;;;2.33;72.76;93399.94;1712827;83;20987;-58
2021/12/06 02:54:07;;;;;;;241.33;131.95;;;;;;;2.23;72.71;93401.58;1713076;83;20965;-55
2021/12/06 02:56:50;;;;;;;250.60;133.85;;;;;;;2.11;72.93;93401.69;1711828;83;21845;-57
2021/12/06 02:59:06;;;;;;;253.02;131.85;;;;;;;2.08;73.16;93404.47;1708392;83;21108;-57
2021/12/06 03:01:37;;;;;;;265.25;141.00;;;;;;;2.17;73.18;93400.58;1711916;83;21474;-58
2021/12/06 03:04:05;;;;;;;253.75;144.82;;;;;;;2.25;72.94;93393.77;1710031;83;20946;-56
2021/12/06 03:06:32;;;;;;;219.70;123.00;;;;;;;2.31;72.79;93394.80;1710269;83;21077;-57
2021/12/06 03:09:08;;;;;;;234.18;125.35;;;;;;;2.28;72.26;93392.33;1708848;83;21133;-61
2021/12/06 03:11:46;;;;;;;236.75;130.25;;;;;;;2.14;72.27;93394.05;1711210;83;21485;-57
2021/12/06 03:14:17;;;;;;;256.87;132.12;;;;;;;2.02;72.63;93398.05;1709493;83;21184;-57
2021/12/06 03:16:44;;;;;;;239.93;130.80;;;;;;;1.99;72.95;93393.48;1711481;83;20986;-58
2021/12/06 03:19:12;;;;;;;241.27;133.10;;;;;;;2.00;73.36;93388.23;1709876;83;20998;-57
2021/12/06 03:21:39;;;;;;;252.03;134.95;;;;;;;2.13;73.57;93387.71;1710394;83;21109;-57
2021/12/06 03:24:06;;;;;;;251.12;136.65;;;;;;;2.23;73.51;93392.08;1708910;83;21049;-57
2021/12/06 03:26:34;;;;;;;287.63;154.32;;;;;;;2.21;73.05;93398.53;1708551;83;21474;-57
2021/12/06 03:29:01;;;;;;;279.13;156.40;;;;;;;2.22;73.28;93398.70;1707934;83;21019;-57
2021/12/06 03:31:28;;;;;;;192.22;113.55;;;;;;;2.25;73.26;93398.62;1707832;83;21009;-57
2021/12/06 03:33:56;;;;;;;234.47;134.67;;;;;;;2.34;73.17;93400.11;1707895;83;21160;-61
2021/12/06 03:36:26;;;;;;;243.52;142.10;;;;;;;2.42;72.86;93402.05;1710414;83;21498;-56
2021/12/06 03:38:54;;;;;;;241.17;137.47;;;;;;;2.46;72.85;93399.99;1709961;83;21437;-56
2021/12/06 03:41:22;;;;;;;240.37;138.52;;;;;;;2.51;72.48;93403.56;1709294;83;21521;-57
2021/12/06 03:43:50;;;;;;;254.53;136.07;;;;;;;2.47;72.53;93390.69;1710206;83;21097;-58
2021/12/06 03:46:19;;;;;;;240.12;133.80;;;;;;;2.53;72.81;93388.97;1712039;83;21975;-58
2021/12/06 03:48:47;;;;;;;222.35;126.30;;;;;;;2.58;72.38;93385.72;1689352;83;21088;-57
2021/12/06 03:51:14;;;;;;;238.87;128.65;;;;;;;2.52;72.14;93388.80;1712527;83;20970;-57
2021/12/06 03:53:41;;;;;;;230.15;130.47;;;;;;;2.44;72.29;93386.09;1688238;83;21030;-57
2021/12/06 03:56:08;;;;;;;235.38;128.95;;;;;;;2.38;72.40;93385.10;1710121;83;20998;-58
2021/12/06 03:58:35;;;;;;;243.93;133.57;;;;;;;2.29;72.18;93376.22;1712270;83;21172;-57
2021/12/06 04:01:03;;;;;;;250.55;133.27;;;;;;;2.23;72.78;93383.36;1710803;83;21084;-58
2021/12/06 04:03:34;;;;;;;253.88;134.80;;;;;;;2.28;72.62;93383.42;1712675;82;21466;-57
2021/12/06 04:06:03;;;;;;;256.98;141.10;;;;;;;2.24;72.54;93383.53;1687719;83;21018;-57
2021/12/06 04:08:32;;;;;;;268.67;140.28;;;;;;;2.26;72.99;93387.16;1689517;83;21086;-56
2021/12/06 04:11:00;;;;;;;269.20;144.35;;;;;;;2.37;73.09;93382.22;1715119;82;21103;-58
2021/12/06 04:13:28;;;;;;;237.05;134.10;;;;;;;2.52;72.73;93388.80;1708487;83;21549;-57
2021/12/06 04:15:55;;;;;;;251.92;140.05;;;;;;;2.47;71.99;93389.33;1711185;83;21485;-58
2021/12/06 04:18:22;;;;;;;263.95;142.30;;;;;;;2.35;72.12;93381.89;1709791;83;21041;-57
2021/12/06 04:20:49;;;;;;;235.13;125.30;;;;;;;2.27;72.30;93377.83;1709386;83;21077;-57
2021/12/06 04:23:15;;;;;;;236.87;125.00;;;;;;;2.14;72.40;93379.73;1707750;83;21145;-57
2021/12/06 04:25:44;;;;;;;242.20;131.97;;;;;;;1.93;72.83;93376.21;1709559;83;21466;-58
2021/12/06 04:28:15;;;;;;;264.45;143.75;;;;;;;1.83;73.27;93382.06;1689869;83;21058;-58
2021/12/06 04:30:41;;;;;;;269.93;147.25;;;;;;;1.82;73.86;93383.25;1709522;83;21045;-57
2021/12/06 04:33:09;;;;;;;258.15;142.45;;;;;;;1.88;73.96;93379.42;1712096;82;21100;-56
2021/12/06 04:35:37;;;;;;;228.88;128.82;;;;;;;2.00;74.11;93378.73;1710093;83;21781;-57
2021/12/06 04:38:05;;;;;;;235.57;127.70;;;;;;;2.12;73.58;93384.83;1687620;83;21025;-57
2021/12/06 04:40:35;;;;;;;241.02;132.20;;;;;;;2.05;73.17;93380.34;1711290;83;21021;-57
2021/12/06 04:43:03;;;;;;;246.85;135.10;;;;;;;2.04;73.65;93384.83;1708056;83;21041;-57
2021/12/06 04:45:30;;;;;;;253.02;138.82;;;;;;;2.10;73.43;93378.47;1710382;83;21057;-57
2021/12/06 04:47:58;;;;;;;269.90;148.82;;;;;;;2.15;73.59;93381.26;1711833;83;21169;-57
2021/12/06 04:50:30;;;;;;;266.85;143.17;;;;;;;2.19;73.19;93383.28;1683931;83;21108;-56
2021/12/06 04:53:02;;;;;;;251.87;136.70;;;;;;;2.20;73.43;93376.67;1709952;83;21054;-57
2021/12/06 04:55:41;;;;;;;241.35;132.45;;;;;;;2.28;73.16;93379.34;1712410;83;22424;-58
2021/12/06 04:58:12;;;;;;;262.88;143.72;;;;;;;2.20;72.59;93377.44;1710730;83;21050;-57
2021/12/06 05:00:48;;;;;;;265.60;144.02;;;;;;;2.03;72.98;93381.95;1711442;83;21664;-60
2021/12/06 05:03:15;;;;;;;253.37;139.22;;;;;;;2.02;73.43;93379.07;1711375;83;20955;-56
2021/12/06 05:05:48;;;;;;;256.73;141.10;;;;;;;2.09;73.23;93382.95;1704118;83;21097;-57
2021/12/06 05:08:25;;;;;;;265.27;147.00;;;;;;;2.06;72.93;93388.64;1709738;83;21038;-57
2021/12/06 05:10:54;;;;;;;250.82;140.92;;;;;;;2.03;73.07;93395.50;1709822;83;21481;-57
2021/12/06 05:13:21;;;;;;;277.07;152.20;;;;;;;2.00;73.14;93400.43;1686960;83;21179;-57
2021/12/06 05:15:49;;;;;;;290.32;161.03;;;;;;;1.89;73.05;93393.14;1711372;83;21089;-58
2021/12/06 05:18:16;;;;;;;269.87;151.68;;;;;;;1.74;73.43;93395.44;1687803;83;21017;-58
2021/12/06 05:20:43;;;;;;;268.57;153.70;;;;;;;1.71;73.79;93399.58;1710915;83;21113;-58
2021/12/06 05:23:11;;;;;;;269.13;145.95;;;;;;;1.75;74.00;93385.37;1710566;83;21499;-57
2021/12/06 05:25:38;;;;;;;260.48;146.93;;;;;;;1.76;73.72;93388.25;1711928;83;21161;-57
2021/12/06 05:28:06;;;;;;;259.50;144.90;;;;;;;1.68;73.70;93392.30;1712362;83;20939;-57
2021/12/06 05:30:36;;;;;;;267.87;148.50;;;;;;;1.60;74.13;93401.80;1711943;83;21049;-59
2021/12/06 05:33:03;;;;;;;245.85;141.80;;;;;;;1.53;74.22;93395.17;1711084;83;21196;-60
2021/12/06 05:35:30;;;;;;;237.38;131.07;;;;;;;1.54;74.54;93392.63;1710082;83;21014;-58
2021/12/06 05:37:58;;;;;;;238.03;137.30;;;;;;;1.54;74.46;93394.59;1710820;83;21951;-57
2021/12/06 05:40:31;;;;;;;230.27;132.15;;;;;;;1.51;74.58;93395.44;1709668;83;21415;-55
2021/12/06 05:42:59;;;;;;;244.15;131.95;;;;;;;1.49;74.60;93387.72;1708085;83;20974;-58
2021/12/06 05:45:28;;;;;;;242.72;135.90;;;;;;;1.45;74.58;93385.70;1711766;83;21442;-58
2021/12/06 05:47:56;;;;;;;262.32;141.53;;;;;;;1.40;74.78;93384.84;1710230;83;21780;-56
2021/12/06 05:50:23;;;;;;;235.15;125.35;;;;;;;1.39;75.00;93391.45;1686226;83;21914;-59
2021/12/06 05:52:53;;;;;;;268.88;141.30;;;;;;;1.40;75.04;93386.78;1710576;83;21077;-59
2021/12/06 05:55:19;;;;;;;320.27;162.92;;;;;;;1.34;75.19;93387.13;1685774;83;21070;-59
2021/12/06 05:57:47;;;;;;;340.80;177.02;;;;;;;1.34;75.51;93383.06;1710162;83;21513;-57
2021/12/06 06:00:16;;;;;;;350.07;169.87;;;;;;;1.42;75.62;93377.64;1712030;83;21116;-61
2021/12/06 06:02:46;;;;;;;411.05;207.85;;;;;;;1.53;75.32;93378.91;1710301;83;21304;-57
2021/12/06 06:05:12;;;;;;;358.47;182.53;;;;;;;1.54;75.03;93380.44;1712668;82;21509;-57
2021/12/06 06:07:41;;;;;;;306.25;158.50;;;;;;;1.54;75.28;93389.92;1667018;83;21501;-59
2021/12/06 06:10:08;;;;;;;261.20;142.95;;;;;;;1.53;75.13;93385.69;1708881;83;21430;-58
2021/12/06 06:12:35;;;;;;;269.10;144.53;;;;;;;1.52;75.17;93385.52;1710128;83;21010;-57
2021/12/06 06:15:03;;;;;;;241.50;133.35;;;;;;;1.58;75.34;93387.91;1709610;82;21953;-58
2021/12/06 06:17:38;;;;;;;263.55;137.28;;;;;;;1.63;75.27;93386.63;1710121;83;21067;-59
2021/12/06 06:19:58;;;;;;;303.95;160.70;;;;;;;1.68;75.09;93385.52;1686930;83;21180;-57
2021/12/06 06:22:25;;;;;;;301.52;164.70;;;;;;;1.65;75.18;93386.38;1708061;82;21107;-60
2021/12/06 06:24:52;;;;;;;301.65;163.97;;;;;;;1.70;75.41;93377.73;1722750;81;21090;-62
2021/12/06 06:27:20;;;;;;;305.50;168.10;;;;;;;1.83;75.56;93385.36;1687842;82;21175;-60
2021/12/06 06:29:47;;;;;;;329.23;181.97;;;;;;;1.94;75.20;93393.39;1723849;81;21056;-61
2021/12/06 06:32:13;;;;;;;310.08;164.82;;;;;;;2.09;75.19;93393.80;1699842;82;21066;-59
2021/12/06 06:34:40;;;;;;;309.83;164.20;;;;;;;2.24;74.76;93394.96;1710676;82;21135;-61
2021/12/06 06:37:07;;;;;;;304.73;169.97;;;;;;;2.23;74.23;93398.28;1720653;82;21885;-59
2021/12/06 06:39:34;;;;;;;285.20;167.10;;;;;;;2.25;74.31;93398.62;1667972;84;21082;-58
2021/12/06 06:42:01;;;;;;;296.25;164.10;;;;;;;2.27;73.78;93409.02;1613414;84;22401;-59
2021/12/06 06:44:28;;;;;;;278.23;151.87;;;;;;;2.26;73.98;93405.56;1629112;85;21584;-58
2021/12/06 06:46:55;;;;;;;277.22;150.05;;;;;;;2.26;73.63;93412.92;1662135;84;21086;-60
2021/12/06 06:49:24;;;;;;;262.32;145.68;;;;;;;2.21;73.71;93414.81;1652083;85;21108;-60
2021/12/06 06:51:50;;;;;;;301.98;168.43;;;;;;;2.16;73.62;93418.05;1649159;84;21400;-60
2021/12/06 06:54:17;;;;;;;275.02;155.35;;;;;;;2.09;73.91;93412.78;1659686;85;21993;-58
2021/12/06 06:56:43;;;;;;;293.82;162.50;;;;;;;2.17;74.31;93414.14;1625865;85;21219;-58
2021/12/06 06:59:10;;;;;;;325.75;185.43;;;;;;;2.27;74.12;93410.38;1621818;86;21599;-58
2021/12/06 07:01:37;;;;;;;304.65;176.40;;;;;;;2.32;74.06;93412.59;1621919;85;21264;-58
2021/12/06 07:04:04;;;;;;;322.25;189.05;;;;;;;2.44;74.30;93405.09;1637413;85;21261;-57
2021/12/06 07:06:32;;;;;;;323.38;186.57;;;;;;;2.57;73.89;93407.27;1637564;85;21027;-59
2021/12/06 07:08:59;;;;;;;333.68;197.22;;;;;;;2.69;73.49;93399.77;1639122;85;21376;-59
2021/12/06 07:11:28;;;;;;;381.32;221.55;;;;;;;2.72;73.19;93405.70;1639300;85;21851;-61
2021/12/06 07:13:56;;;;;;;349.20;199.20;;;;;;;2.76;73.12;93407.72;1669830;84;21610;-60
2021/12/06 07:16:25;;;;;;;305.48;179.07;;;;;;;2.80;72.88;93404.30;1631287;85;21983;-59
2021/12/06 07:18:52;;;;;;;318.95;185.85;;;;;;;2.82;72.72;93396.48;1604393;84;21049;-61
2021/12/06 07:21:19;;;;;;;323.73;192.47;;;;;;;2.84;72.79;93395.48;1611368;84;21027;-60
2021/12/06 07:23:48;;;;;;;295.67;176.15;;;;;;;2.91;72.54;93398.73;1634418;84;21097;-62
2021/12/06 07:26:21;;;;;;;236.00;142.68;;;;;;;2.98;72.32;93395.06;1633639;84;21115;-62
2021/12/06 07:28:51;;;;;;;305.27;178.70;;;;;;;2.98;72.06;93399.91;1687015;82;21314;-61
2021/12/06 07:31:18;;;;;;;307.87;182.17;;;;;;;2.91;72.22;93402.06;1690976;81;21014;-59
2021/12/06 07:33:48;;;;;;;284.60;168.90;;;;;;;2.96;72.29;93395.51;1688811;81;21030;-60
2021/12/06 07:36:16;;;;;;;299.23;177.90;;;;;;;3.04;71.79;93394.70;1637231;83;21309;-59
2021/12/06 07:38:43;;;;;;;294.75;174.75;;;;;;;3.02;71.53;93398.45;1644784;85;21065;-64
2021/12/06 07:41:12;;;;;;;300.48;180.03;;;;;;;2.93;71.64;93405.10;1632237;85;21141;-60
2021/12/06 07:43:41;;;;;;;323.43;193.70;;;;;;;2.92;72.16;93400.86;1637505;85;21163;-62
2021/12/06 07:46:08;;;;;;;308.45;184.70;;;;;;;2.97;72.24;93400.33;1635929;86;21563;-59
2021/12/06 07:48:36;;;;;;;299.48;178.93;;;;;;;3.10;72.61;93395.69;1700985;82;21104;-58
2021/12/06 07:51:05;;;;;;;347.58;205.52;;;;;;;3.23;72.19;93400.55;1693331;82;22186;-58
2021/12/06 07:53:33;;;;;;;355.50;214.88;;;;;;;3.24;72.24;93404.18;1677519;82;22233;-60
2021/12/06 07:56:00;;;;;;;368.93;225.72;;;;;;;3.34;72.21;93398.27;1696890;82;21534;-60
2021/12/06 07:58:29;;;;;;;388.12;232.25;;;;;;;3.40;71.86;93398.66;1703362;82;21090;-63
2021/12/06 08:00:55;;;;;;;387.55;233.65;;;;;;;3.41;71.95;93398.07;1682832;83;21061;-60
2021/12/06 08:03:26;;;;;;;383.45;223.62;;;;;;;3.47;72.00;93399.05;1698712;83;21649;-63
2021/12/06 08:05:53;;;;;;;412.00;233.10;;;;;;;3.51;71.85;93391.70;1699124;81;21942;-60
2021/12/06 08:08:23;;;;;;;360.82;213.47;;;;;;;3.50;72.00;93391.53;1695154;82;21021;-62
2021/12/06 08:10:59;;;;;;;338.73;207.72;;;;;;;3.58;71.88;93402.95;1687460;81;21360;-60
2021/12/06 08:13:30;;;;;;;365.07;222.37;;;;;;;3.55;71.61;93398.39;1687727;82;22082;-59
2021/12/06 08:16:01;;;;;;;402.50;234.10;;;;;;;3.53;71.97;93389.91;1676841;82;21260;-61
2021/12/06 08:18:28;;;;;;;395.80;237.20;;;;;;;3.66;71.89;93383.89;1638055;84;21158;-59
2021/12/06 08:20:56;;;;;;;570.12;290.65;;;;;;;3.79;71.61;93375.88;1614459;84;21067;-59
2021/12/06 08:23:26;;;;;;;377.73;213.97;;;;;;;3.86;71.30;93363.39;1640704;84;21428;-62
2021/12/06 08:25:53;;;;;;;284.32;175.75;;;;;;;3.81;71.06;93362.59;1667483;82;21040;-56
2021/12/06 08:28:23;;;;;;;287.98;181.18;;;;;;;3.66;70.97;93371.04;1687030;81;21522;-61
2021/12/06 08:30:52;;;;;;;285.55;182.78;;;;;;;3.52;71.23;93382.96;1686443;82;21119;-59
2021/12/06 08:33:20;;;;;;;306.50;191.85;;;;;;;3.39;71.66;93388.98;1686899;81;21688;-56
2021/12/06 08:35:52;;;;;;;320.75;197.55;;;;;;;3.38;72.13;93386.72;1688051;82;21092;-61
2021/12/06 08:38:16;;;;;;;352.13;216.00;;;;;;;3.43;72.19;93389.62;1689341;82;21113;-58
2021/12/06 08:40:44;;;;;;;336.35;215.45;;;;;;;3.55;72.41;93392.34;1647899;82;21441;-60
2021/12/06 08:43:16;;;;;;;324.65;213.18;;;;;;;3.68;72.05;93386.31;1689853;81;21106;-57
2021/12/06 08:45:40;;;;;;;324.73;201.45;;;;;;;3.82;72.15;93395.39;1680548;82;20936;-59
2021/12/06 08:48:07;;;;;;;330.52;215.22;;;;;;;3.97;71.90;93392.39;1660257;82;21020;-58
2021/12/06 08:50:34;;;;;;;334.75;209.67;;;;;;;4.10;71.73;93390.41;1689033;82;21022;-60
2021/12/06 08:53:01;;;;;;;338.37;220.52;;;;;;;4.22;71.57;93376.00;1685555;82;21035;-58
2021/12/06 08:55:27;;;;;;;310.10;206.80;;;;;;;4.26;71.35;93376.63;1699041;81;22418;-58
2021/12/06 08:57:56;;;;;;;329.30;212.70;;;;;;;4.30;71.22;93369.13;1652441;83;21094;-59
2021/12/06 09:00:28;;;;;;;338.45;218.75;;;;;;;4.28;71.18;93371.51;1679370;82;22309;-57
2021/12/06 09:02:55;;;;;;;308.02;195.82;;;;;;;4.31;71.41;93367.93;1690830;82;21043;-59
2021/12/06 09:05:28;;;;;;;315.00;204.35;;;;;;;4.32;70.89;93363.23;1686488;82;21575;-57
2021/12/06 09:07:56;;;;;;;305.10;196.60;;;;;;;4.20;70.86;93374.94;1692163;82;21234;-60
2021/12/06 09:10:32;;;;;;;299.98;195.68;;;;;;;4.07;71.11;93376.30;1678382;83;21014;-59
2021/12/06 09:12:59;;;;;;;317.13;202.68;;;;;;;4.01;71.26;93373.98;1701251;82;21543;-62
2021/12/06 09:15:27;;;;;;;274.02;181.20;;;;;;;3.96;71.58;93374.55;1689279;83;21514;-58
2021/12/06 09:17:55;;;;;;;279.07;179.68;;;;;;;3.96;71.63;93376.48;1663902;82;21117;-59
2021/12/06 09:20:30;;;;;;;280.15;184.87;;;;;;;3.88;71.58;93379.30;1690851;82;21978;-59
2021/12/06 09:22:58;;;;;;;277.70;184.52;;;;;;;3.79;71.90;93375.88;1693852;82;21405;-61
2021/12/06 09:25:26;;;;;;;249.77;160.05;;;;;;;3.73;72.15;93377.60;1674045;82;21595;-60
2021/12/06 09:27:52;;;;;;;231.80;143.55;;;;;;;3.71;72.43;93380.00;1696720;82;21521;-58
2021/12/06 09:30:26;;;;;;;218.20;139.18;;;;;;;3.72;72.56;93378.80;1693396;82;21491;-57
2021/12/06 09:32:56;;;;;;;181.82;120.80;;;;;;;3.69;72.75;93383.01;1692240;82;21458;-58
2021/12/06 09:35:27;;;;;;;166.00;111.42;;;;;;;3.74;72.89;93381.88;1686800;83;21065;-58
2021/12/06 09:37:55;;;;;;;151.85;96.30;;;;;;;3.78;72.82;93381.16;1675896;82;21080;-59
2021/12/06 09:40:22;;;;;;;135.18;90.62;;;;;;;3.83;72.61;93370.33;1700210;83;21045;-61
2021/12/06 09:42:50;;;;;;;149.12;99.97;;;;;;;3.80;72.47;93367.88;1693092;82;21177;-57
2021/12/06 09:45:21;;;;;;;157.07;100.87;;;;;;;3.65;72.68;93369.52;1693092;82;21127;-58
2021/12/06 09:47:51;;;;;;;142.60;93.10;;;;;;;3.60;72.99;93366.00;1702900;82;21053;-59
2021/12/06 09:50:27;;;;;;;125.30;83.97;;;;;;;3.62;72.85;93355.44;1668644;83;21073;-62
2021/12/06 09:52:59;;;;;;;119.62;79.55;;;;;;;3.73;73.10;93357.82;1688553;83;21080;-60
2021/12/06 09:55:29;;;;;;;125.47;81.92;;;;;;;3.86;72.90;93357.95;1692234;82;21282;-60
2021/12/06 09:58:05;;;;;;;130.00;88.52;;;;;;;3.97;72.76;93350.81;1696889;82;21026;-60
2021/12/06 10:00:43;;;;;;;169.93;113.28;;;;;;;4.12;72.88;93351.28;1678582;82;21713;-61
2021/12/06 10:03:22;;;;;;;214.10;144.55;;;;;;;4.28;72.65;93340.20;1645622;82;21069;-60
2021/12/06 10:05:51;;;;;;;225.62;156.12;;;;;;;4.33;72.35;93334.22;1660605;82;21037;-61
2021/12/06 10:08:22;;;;;;;216.25;140.00;;;;;;;4.36;72.55;93336.05;1683957;81;21644;-60
2021/12/06 10:10:50;;;;;;;233.70;155.37;;;;;;;4.43;72.53;93330.97;1691945;81;21453;-61
2021/12/06 10:13:20;;;;;;;215.57;145.75;;;;;;;4.53;72.77;93329.23;1645892;82;21029;-58
2021/12/06 10:15:48;;;;;;;215.43;144.17;;;;;;;4.74;72.59;93333.14;1686737;82;21018;-59
2021/12/06 10:18:18;;;;;;;199.05;136.72;;;;;;;4.91;71.75;93321.62;1653592;83;21045;-60
2021/12/06 10:20:44;;;;;;;189.37;131.37;;;;;;;4.92;71.02;93328.59;1664915;82;21040;-60
2021/12/06 10:23:12;;;;;;;163.10;115.62;;;;;;;4.84;71.06;93321.89;1682320;82;22437;-60
2021/12/06 10:25:43;;;;;;;171.70;121.30;;;;;;;4.81;70.94;93323.38;1691488;82;21097;-58
2021/12/06 10:28:12;;;;;;;150.03;104.12;;;;;;;4.70;71.09;93322.98;1698823;82;21001;-60
2021/12/06 10:30:51;;;;;;;130.18;88.70;;;;;;;4.69;71.05;93316.02;1690245;82;21046;-62
2021/12/06 10:33:23;;;;;;;161.65;106.65;;;;;;;4.66;71.00;93319.64;1691877;81;21164;-60
2021/12/06 10:35:55;;;;;;;166.68;118.65;;;;;;;4.65;71.48;93312.08;1715607;82;21080;-61
2021/12/06 10:38:28;;;;;;;180.48;119.70;;;;;;;4.74;71.38;93310.77;1702282;83;28828;-60
2021/12/06 10:41:13;;;;;;;199.17;134.45;;;;;;;4.72;71.27;93299.56;1691098;83;21096;-60
2021/12/06 10:43:44;;;;;;;221.50;151.75;;;;;;;4.68;71.71;93296.22;1701841;82;21172;-59
2021/12/06 10:46:11;;;;;;;174.47;116.60;;;;;;;4.82;71.90;93305.82;1646726;82;20993;-61
2021/12/06 10:48:38;;;;;;;156.75;109.30;;;;;;;4.91;71.37;93301.19;1693184;83;21188;-61
2021/12/06 10:51:16;;;;;;;177.57;123.75;;;;;;;4.95;71.26;93296.36;1679339;82;21586;-62
2021/12/06 10:53:57;;;;;;;141.32;100.35;;;;;;;4.99;71.06;93302.42;1688888;82;21120;-60
2021/12/06 10:56:26;;;;;;;144.07;96.35;;;;;;;4.96;71.04;93303.33;1716207;81;21050;-65
2021/12/06 10:58:54;;;;;;;127.90;88.10;;;;;;;4.99;71.09;93316.05;1700728;82;21060;-61
2021/12/06 11:01:31;;;;;;;119.30;82.37;;;;;;;5.07;70.82;93313.23;1685463;82;21148;-62
2021/12/06 11:04:00;;;;;;;118.45;76.67;;;;;;;5.06;70.38;93321.25;1699915;82;21017;-62
2021/12/06 11:06:42;;;;;;;127.50;87.40;;;;;;;4.95;70.41;93307.26;1695173;81;21106;-62
2021/12/06 11:09:09;;;;;;;114.03;78.25;;;;;;;4.90;70.63;93319.33;1715786;82;21143;-63
2021/12/06 11:11:46;;;;;;;115.22;76.57;;;;;;;4.89;70.99;93319.17;1673579;83;21010;-63
2021/12/06 11:14:19;;;;;;;113.88;78.85;;;;;;;4.92;71.01;93310.88;1666210;85;21161;-61
2021/12/06 11:16:52;;;;;;;106.07;75.32;;;;;;;5.03;71.24;93326.23;1630755;85;21077;-64
2021/12/06 11:19:22;;;;;;;108.15;74.37;;;;;;;5.13;70.92;93324.33;1653092;84;21557;-63
2021/12/06 11:21:58;;;;;;;112.47;76.37;;;;;;;5.10;70.57;93323.83;1628733;85;21154;-62
2021/12/06 11:24:39;;;;;;;106.07;76.25;;;;;;;5.11;70.93;93312.49;1652330;85;22296;-63
2021/12/06 11:27:17;;;;;;;94.25;67.60;;;;;;;5.31;70.75;93310.16;1668662;84;21179;-64
2021/12/06 11:29:54;;;;;;;113.00;78.00;;;;;;;5.35;70.22;93321.69;1661796;85;22671;-61